createdAt,value
2019-06-26T00:01:49.684Z,4.67
2019-06-26T00:04:21.712Z,7.10
2019-06-26T00:06:53.876Z,5.95
2019-06-26T00:09:25.842Z,6.80
2019-06-26T00:11:58.054Z,10.65
2019-06-26T00:14:30.186Z,4.00
2019-06-26T00:17:02.137Z,8.13
2019-06-26T00:19:34.416Z,5.72
2019-06-26T00:22:06.564Z,7.10
2019-06-26T00:24:38.854Z,7.50
2019-06-26T00:27:11.015Z,7.20
2019-06-26T00:29:43.186Z,9.45
2019-06-26T00:32:15.264Z,6.60
2019-06-26T00:34:47.423Z,6.37
2019-06-26T00:37:19.392Z,9.38
2019-06-26T00:39:51.795Z,3.45
2019-06-26T00:42:31.644Z,7.40
2019-06-26T00:45:07.519Z,8.23
2019-06-26T00:47:39.734Z,8.58
2019-06-26T00:50:12.008Z,8.28
2019-06-26T00:52:44.065Z,6.03
2019-06-26T00:55:16.246Z,3.45
2019-06-26T00:57:48.093Z,7.00
2019-06-26T01:00:23.546Z,7.90
2019-06-26T01:02:55.612Z,3.87
2019-06-26T01:05:27.697Z,8.55
2019-06-26T01:07:59.937Z,3.42
2019-06-26T01:10:32.505Z,6.78
2019-06-26T01:13:04.282Z,5.78
2019-06-26T01:15:39.012Z,5.35
2019-06-26T01:18:11.177Z,4.30
2019-06-26T01:20:43.446Z,8.35
2019-06-26T01:23:15.560Z,8.73
2019-06-26T01:25:47.780Z,6.33
2019-06-26T01:28:19.845Z,5.03
2019-06-26T01:30:51.916Z,6.92
2019-06-26T01:33:24.509Z,7.33
2019-06-26T01:35:56.677Z,9.15
2019-06-26T01:38:29.336Z,6.78
2019-06-26T01:41:01.503Z,7.25
2019-06-26T01:43:33.685Z,11.25
2019-06-26T01:46:05.946Z,14.18
2019-06-26T01:48:38.523Z,8.43
2019-06-26T01:51:10.486Z,7.17
2019-06-26T01:53:42.651Z,7.50
2019-06-26T01:56:16.006Z,8.35
2019-06-26T01:58:48.229Z,9.80
2019-06-26T02:01:21.653Z,8.08
2019-06-26T02:03:54.401Z,11.25
2019-06-26T02:06:26.879Z,10.55
2019-06-26T02:08:58.940Z,9.88
2019-06-26T02:11:30.902Z,5.97
2019-06-26T02:14:02.984Z,6.40
2019-06-26T02:16:35.955Z,6.30
2019-06-26T02:19:09.761Z,8.03
2019-06-26T02:21:41.558Z,5.13
2019-06-26T02:24:14.031Z,8.68
2019-06-26T02:26:46.473Z,8.50
2019-06-26T02:29:19.964Z,6.83
2019-06-26T02:31:53.472Z,6.53
2019-06-26T02:34:25.663Z,7.17
2019-06-26T02:36:57.924Z,6.55
2019-06-26T02:39:30.125Z,8.98
2019-06-26T02:42:02.041Z,9.25
2019-06-26T02:44:52.376Z,9.70
2019-06-26T02:47:19.741Z,10.03
2019-06-26T02:49:43.257Z,9.50
2019-06-26T02:52:15.683Z,8.73
2019-06-26T02:54:48.106Z,11.38
2019-06-26T02:57:20.170Z,7.22
2019-06-26T02:59:52.236Z,4.62
2019-06-26T03:02:24.421Z,12.00
2019-06-26T03:04:56.588Z,10.50
2019-06-26T03:07:28.838Z,7.60
2019-06-26T03:10:00.818Z,10.28
2019-06-26T03:12:33.177Z,6.03
2019-06-26T03:15:10.163Z,8.25
2019-06-26T03:17:54.626Z,8.20
2019-06-26T03:20:19.099Z,5.70
2019-06-26T03:22:51.063Z,5.97
2019-06-26T03:25:23.149Z,7.17
2019-06-26T03:27:55.096Z,8.95
2019-06-26T03:30:27.128Z,7.10
2019-06-26T03:32:59.640Z,6.03
2019-06-26T03:35:34.446Z,8.63
2019-06-26T03:38:06.434Z,10.72
2019-06-26T03:40:41.120Z,11.83
2019-06-26T03:43:19.330Z,9.13
2019-06-26T03:45:51.265Z,9.70
2019-06-26T03:48:23.396Z,6.42
2019-06-26T03:50:55.363Z,9.68
2019-06-26T03:53:28.143Z,8.38
2019-06-26T03:56:00.208Z,7.47
2019-06-26T03:58:32.327Z,10.00
2019-06-26T04:01:04.858Z,12.95
2019-06-26T04:03:36.916Z,12.37
2019-06-26T04:06:08.884Z,13.83
2019-06-26T04:08:41.460Z,11.03
2019-06-26T04:11:13.629Z,8.53
2019-06-26T04:13:45.588Z,9.43
2019-06-26T04:16:17.557Z,9.25
2019-06-26T04:18:49.516Z,9.48
2019-06-26T04:21:21.481Z,11.25
2019-06-26T04:23:54.260Z,9.55
2019-06-26T04:26:26.163Z,8.70
2019-06-26T04:28:58.289Z,10.40
2019-06-26T04:31:30.310Z,16.23
2019-06-26T04:34:02.737Z,11.18
2019-06-26T04:36:35.408Z,10.20
2019-06-26T04:39:07.678Z,7.90
2019-06-26T04:41:39.653Z,11.83
2019-06-26T04:44:11.707Z,5.33
2019-06-26T04:46:43.777Z,6.80
2019-06-26T04:49:15.840Z,13.68
2019-06-26T04:51:48.111Z,7.53
2019-06-26T04:54:20.175Z,13.60
2019-06-26T04:56:52.469Z,11.75
2019-06-26T04:59:24.413Z,6.33
2019-06-26T05:01:56.583Z,7.80
2019-06-26T05:04:32.558Z,9.33
2019-06-26T05:07:04.603Z,11.35
2019-06-26T05:09:36.781Z,6.97
2019-06-26T05:12:08.946Z,8.60
2019-06-26T05:14:41.035Z,8.13
2019-06-26T05:17:13.480Z,8.03
2019-06-26T05:19:45.652Z,6.17
2019-06-26T05:22:18.021Z,6.22
2019-06-26T05:24:50.701Z,9.23
2019-06-26T05:27:22.562Z,7.12
2019-06-26T05:29:54.931Z,4.90
2019-06-26T05:35:02.344Z,7.22
2019-06-26T05:37:37.195Z,12.15
2019-06-26T05:40:14.457Z,7.33
2019-06-26T05:42:54.718Z,4.90
2019-06-26T05:45:27.189Z,5.53
2019-06-26T05:48:00.401Z,7.90
2019-06-26T05:50:32.200Z,8.23
2019-06-26T05:53:04.620Z,13.53
2019-06-26T05:55:36.614Z,4.78
2019-06-26T05:58:08.382Z,8.30
2019-06-26T06:00:40.170Z,6.25
2019-06-26T06:03:11.944Z,9.15
2019-06-26T06:05:43.692Z,6.67
2019-06-26T06:08:15.579Z,8.53
2019-06-26T06:10:48.361Z,13.72
2019-06-26T06:13:20.635Z,14.35
2019-06-26T06:15:53.005Z,12.90
2019-06-26T06:18:25.484Z,10.30
2019-06-26T06:20:58.831Z,12.93
2019-06-26T06:23:31.069Z,6.72
2019-06-26T06:26:03.113Z,12.03
2019-06-26T06:28:35.500Z,9.80
2019-06-26T06:31:07.840Z,12.70
2019-06-26T06:33:40.183Z,9.05
2019-06-26T06:36:12.196Z,9.18
2019-06-26T06:38:44.669Z,16.82
2019-06-26T06:41:17.149Z,10.60
2019-06-26T06:43:49.517Z,8.35
2019-06-26T06:46:22.123Z,12.53
2019-06-26T06:48:54.570Z,9.30
2019-06-26T06:51:27.045Z,8.65
2019-06-26T06:53:59.324Z,6.83
2019-06-26T06:56:32.303Z,8.40
2019-06-26T06:59:04.575Z,10.05
2019-06-26T07:01:37.253Z,6.72
2019-06-26T07:04:09.574Z,14.40
2019-06-26T07:06:41.861Z,8.73
2019-06-26T07:09:18.806Z,8.83
2019-06-26T07:11:53.334Z,6.58
2019-06-26T07:14:25.637Z,5.00
2019-06-26T07:17:01.342Z,5.53
2019-06-26T07:19:31.956Z,10.00
2019-06-26T07:22:07.156Z,7.12
2019-06-26T07:24:38.031Z,7.80
2019-06-26T07:27:10.712Z,4.12
2019-06-26T07:29:42.578Z,3.77
2019-06-26T07:32:14.957Z,4.53
2019-06-26T07:34:47.214Z,8.53
2019-06-26T07:37:19.384Z,6.47
2019-06-26T07:39:51.607Z,6.22
2019-06-26T07:42:24.471Z,3.65
2019-06-26T07:44:57.207Z,4.87
2019-06-26T07:47:42.442Z,4.40
2019-06-26T07:50:04.792Z,7.42
2019-06-26T07:52:36.899Z,2.70
2019-06-26T07:55:18.346Z,5.03
2019-06-26T07:57:54.758Z,2.30
2019-06-26T08:00:31.190Z,7.45
2019-06-26T08:03:04.226Z,4.20
2019-06-26T08:05:36.071Z,3.20
2019-06-26T08:08:08.318Z,1.95
2019-06-26T08:10:40.301Z,3.62
2019-06-26T08:13:12.649Z,4.33
2019-06-26T08:15:45.153Z,4.90
2019-06-26T08:18:17.324Z,4.25
2019-06-26T08:21:07.307Z,5.80
2019-06-26T08:23:25.678Z,5.22
2019-06-26T08:28:31.112Z,5.58
2019-06-26T08:31:03.181Z,2.37
2019-06-26T08:33:35.751Z,9.30
2019-06-26T08:36:08.751Z,4.45
2019-06-26T08:38:40.602Z,4.55
2019-06-26T08:41:12.947Z,2.98
2019-06-26T08:43:45.664Z,2.65
2019-06-26T08:46:17.825Z,4.72
2019-06-26T08:48:52.062Z,4.80
2019-06-26T08:51:24.424Z,2.47
2019-06-26T08:53:56.955Z,6.03
2019-06-26T08:56:29.412Z,9.40
2019-06-26T08:59:02.044Z,5.22
2019-06-26T09:01:34.421Z,6.97
2019-06-26T09:04:06.629Z,4.58
2019-06-26T09:06:39.005Z,3.70
2019-06-26T09:09:10.921Z,8.20
2019-06-26T09:11:43.101Z,8.60
2019-06-26T09:14:15.364Z,8.05
2019-06-26T09:16:47.731Z,5.33
2019-06-26T09:19:20.079Z,6.15
2019-06-26T09:21:52.291Z,6.37
2019-06-26T09:24:24.353Z,4.53
2019-06-26T09:26:56.201Z,5.00
2019-06-26T09:29:28.473Z,4.92
2019-06-26T09:32:01.552Z,5.83
2019-06-26T09:34:34.034Z,3.95
2019-06-26T09:37:05.999Z,3.92
2019-06-26T09:39:38.065Z,5.25
2019-06-26T09:42:10.027Z,4.10
2019-06-26T09:44:42.509Z,5.10
2019-06-26T09:47:15.750Z,12.40
2019-06-26T09:49:47.771Z,4.58
2019-06-26T09:52:19.857Z,5.85
2019-06-26T09:54:52.514Z,7.25
2019-06-26T09:57:24.680Z,2.17
2019-06-26T09:59:56.744Z,3.65
2019-06-26T10:02:29.012Z,4.40
2019-06-26T10:05:01.201Z,3.83
2019-06-26T10:07:33.762Z,5.03
2019-06-26T10:10:06.541Z,4.92
2019-06-26T10:12:38.400Z,9.05
2019-06-26T10:15:10.677Z,2.58
2019-06-26T10:17:42.741Z,8.25
2019-06-26T10:20:16.645Z,5.00
2019-06-26T10:22:49.033Z,4.78
2019-06-26T10:25:23.061Z,5.72
2019-06-26T10:27:55.787Z,2.72
2019-06-26T10:30:30.765Z,2.58
2019-06-26T10:33:03.735Z,10.93
2019-06-26T10:35:35.919Z,6.87
2019-06-26T10:38:07.829Z,4.20
2019-06-26T10:40:40.055Z,6.15
2019-06-26T10:43:12.105Z,3.40
2019-06-26T10:45:45.187Z,3.98
2019-06-26T10:48:18.920Z,7.53
2019-06-26T10:50:58.192Z,6.05
2019-06-26T10:53:24.766Z,4.67
2019-06-26T10:55:57.138Z,6.30
2019-06-26T10:58:29.172Z,3.12
2019-06-26T11:01:00.963Z,3.22
2019-06-26T11:03:33.275Z,2.52
2019-06-26T11:06:05.710Z,3.65
2019-06-26T11:08:37.877Z,6.87
2019-06-26T11:11:10.054Z,6.55
2019-06-26T11:13:42.035Z,2.85
2019-06-26T11:16:13.869Z,3.67
2019-06-26T11:18:46.096Z,2.58
2019-06-26T11:21:18.926Z,5.95
2019-06-26T11:23:51.823Z,4.33
2019-06-26T11:26:23.878Z,1.80
2019-06-26T11:28:55.999Z,5.65
2019-06-26T11:31:28.107Z,3.30
2019-06-26T11:34:00.109Z,9.70
2019-06-26T11:36:32.348Z,4.80
2019-06-26T11:39:06.864Z,6.67
2019-06-26T11:41:38.730Z,4.78
2019-06-26T11:44:10.624Z,5.70
2019-06-26T11:46:42.858Z,2.65
2019-06-26T11:49:14.721Z,3.00
2019-06-26T11:51:46.785Z,8.18
2019-06-26T11:54:18.613Z,6.28
2019-06-26T11:56:50.665Z,5.37
2019-06-26T11:59:22.981Z,7.00
2019-06-26T12:01:56.821Z,5.78
2019-06-26T12:04:28.857Z,8.03
2019-06-26T12:07:17.119Z,7.17
2019-06-26T12:09:49.275Z,7.45
2019-06-26T12:12:21.335Z,4.95
2019-06-26T12:14:53.602Z,2.25
2019-06-26T12:17:26.085Z,4.33
2019-06-26T12:20:16.980Z,3.60
2019-06-26T12:22:35.028Z,4.97
2019-06-26T12:25:07.197Z,3.50
2019-06-26T12:27:55.638Z,5.42
2019-06-26T12:30:43.891Z,3.47
2019-06-26T12:33:32.341Z,6.40
2019-06-26T12:36:04.916Z,3.25
2019-06-26T12:38:52.906Z,5.00
2019-06-26T12:41:25.053Z,8.98
2019-06-26T12:43:57.290Z,9.10
2019-06-26T12:46:29.165Z,7.42
2019-06-26T12:49:17.192Z,7.10
2019-06-26T12:51:49.156Z,5.03
2019-06-26T12:54:21.350Z,4.10
2019-06-26T12:57:09.377Z,4.33
2019-06-26T12:59:56.022Z,4.22
2019-06-26T13:02:14.975Z,4.73
2019-06-26T13:04:58.722Z,8.47
2019-06-26T13:07:31.556Z,3.47
2019-06-26T13:10:07.891Z,6.87
2019-06-26T13:12:40.498Z,5.33
2019-06-26T13:15:12.664Z,10.00
2019-06-26T13:17:45.053Z,4.60
2019-06-26T13:20:17.292Z,6.47
2019-06-26T13:22:49.681Z,3.60
2019-06-26T13:25:21.544Z,7.53
2019-06-26T13:27:53.709Z,8.58
2019-06-26T13:30:32.032Z,8.93
2019-06-26T13:33:04.092Z,8.40
2019-06-26T13:35:36.152Z,4.35
2019-06-26T13:38:08.536Z,4.55
2019-06-26T13:40:41.420Z,8.40
2019-06-26T13:43:13.588Z,4.25
2019-06-26T13:45:45.443Z,7.67
2019-06-26T13:48:17.407Z,5.70
2019-06-26T13:50:49.575Z,3.75
2019-06-26T13:53:21.603Z,3.50
2019-06-26T13:55:53.711Z,7.92
2019-06-26T13:58:25.832Z,9.93
2019-06-26T14:00:57.919Z,7.53
2019-06-26T14:03:29.713Z,5.35
2019-06-26T14:06:01.822Z,16.07
2019-06-26T14:08:34.044Z,7.12
2019-06-26T14:11:07.590Z,3.22
2019-06-26T14:13:41.938Z,8.48
2019-06-26T14:16:13.101Z,7.87
2019-06-26T14:18:45.273Z,5.83
2019-06-26T14:21:25.443Z,6.65
2019-06-26T14:23:51.675Z,8.28
2019-06-26T14:26:23.506Z,3.25
2019-06-26T14:28:55.581Z,3.20
2019-06-26T14:31:27.659Z,7.65
2019-06-26T14:34:16.317Z,11.28
2019-06-26T14:36:48.255Z,4.58
2019-06-26T14:39:20.327Z,4.15
2019-06-26T14:41:52.343Z,4.08
2019-06-26T14:44:24.243Z,2.58
2019-06-26T14:46:56.611Z,7.17
2019-06-26T14:49:28.486Z,4.78
2019-06-26T14:52:00.546Z,5.87
2019-06-26T14:54:32.651Z,12.25
2019-06-26T14:57:06.633Z,6.35
2019-06-26T14:59:38.894Z,6.12
2019-06-26T15:02:11.895Z,8.43
2019-06-26T15:04:46.198Z,6.37
2019-06-26T15:07:17.691Z,7.08
2019-06-26T15:09:50.132Z,3.98
2019-06-26T15:12:22.545Z,6.58
2019-06-26T15:14:57.833Z,6.80
2019-06-26T15:17:29.701Z,8.48
2019-06-26T15:20:01.766Z,5.30
2019-06-26T15:22:34.649Z,12.15
2019-06-26T15:25:07.808Z,10.65
2019-06-26T15:27:39.803Z,3.67
2019-06-26T15:30:11.651Z,4.50
2019-06-26T15:32:43.521Z,5.03
2019-06-26T15:35:15.593Z,4.15
2019-06-26T15:37:47.550Z,9.38
2019-06-26T15:40:19.525Z,7.92
2019-06-26T15:42:51.587Z,4.20
2019-06-26T15:45:23.546Z,6.95
2019-06-26T15:47:55.613Z,7.72
2019-06-26T15:50:27.781Z,5.28
2019-06-26T15:53:00.050Z,2.60
2019-06-26T15:55:32.561Z,5.95
2019-06-26T15:58:06.450Z,8.23
2019-06-26T16:00:38.399Z,9.08
2019-06-26T16:03:10.565Z,5.20
2019-06-26T16:05:42.541Z,6.37
2019-06-26T16:08:14.594Z,10.08
2019-06-26T16:10:46.557Z,10.23
2019-06-26T16:13:20.977Z,5.10
2019-06-26T16:15:52.885Z,6.03
2019-06-26T16:18:32.345Z,5.75
2019-06-26T16:21:04.098Z,5.60
2019-06-26T16:23:35.903Z,7.42
2019-06-26T16:26:07.632Z,7.17
2019-06-26T16:28:39.426Z,6.05
2019-06-26T16:31:11.275Z,8.73
2019-06-26T16:33:43.442Z,5.67
2019-06-26T16:36:16.429Z,7.72
2019-06-26T16:38:48.192Z,7.05
2019-06-26T16:41:20.152Z,4.95
2019-06-26T16:43:52.321Z,8.83
2019-06-26T16:46:25.416Z,14.95
2019-06-26T16:48:57.373Z,8.78
2019-06-26T16:51:29.483Z,10.68
2019-06-26T16:54:01.816Z,12.05
2019-06-26T16:56:34.082Z,8.85
2019-06-26T16:59:06.359Z,8.28
2019-06-26T17:01:38.728Z,6.62
2019-06-26T17:04:10.484Z,14.30
2019-06-26T17:06:42.965Z,10.15
2019-06-26T17:09:15.128Z,13.38
2019-06-26T17:11:47.399Z,7.90
2019-06-26T17:14:19.775Z,15.32
2019-06-26T17:16:51.735Z,6.35
2019-06-26T17:19:24.312Z,9.03
2019-06-26T17:21:56.489Z,9.65
2019-06-26T17:24:29.880Z,10.63
2019-06-26T17:27:01.845Z,10.48
2019-06-26T17:29:33.813Z,8.75
2019-06-26T17:32:05.771Z,10.93
2019-06-26T17:34:38.552Z,12.13
2019-06-26T17:37:10.519Z,11.85
2019-06-26T17:39:42.477Z,11.10
2019-06-26T17:42:15.159Z,7.10
2019-06-26T17:44:47.225Z,11.18
2019-06-26T17:47:19.274Z,6.95
2019-06-26T17:49:51.051Z,12.47
2019-06-26T17:52:22.901Z,11.15
2019-06-26T17:54:54.767Z,7.80
2019-06-26T17:57:26.584Z,10.40
2019-06-26T17:59:58.897Z,5.60
2019-06-26T18:02:30.765Z,12.03
2019-06-26T18:05:03.135Z,11.35
2019-06-26T18:07:35.509Z,10.35
2019-06-26T18:10:08.195Z,13.13
2019-06-26T18:12:40.150Z,10.35
2019-06-26T18:15:12.319Z,10.53
2019-06-26T18:17:44.485Z,11.45
2019-06-26T18:20:17.073Z,16.50
2019-06-26T18:23:02.496Z,13.32
2019-06-26T18:25:22.627Z,14.70
2019-06-26T18:27:55.004Z,19.35
2019-06-26T18:30:27.280Z,15.20
2019-06-26T18:32:59.541Z,14.13
2019-06-26T18:35:32.531Z,13.08
2019-06-26T18:38:04.801Z,13.25
2019-06-26T18:40:37.074Z,19.52
2019-06-26T18:43:09.139Z,23.75
2019-06-26T18:45:41.615Z,31.80
2019-06-26T18:48:13.955Z,20.12
2019-06-26T18:50:47.073Z,16.70
2019-06-26T18:53:19.144Z,10.80
2019-06-26T18:55:51.709Z,13.70
2019-06-26T18:58:23.601Z,15.38
2019-06-26T19:00:55.585Z,14.25
2019-06-26T19:03:29.363Z,16.50
2019-06-26T19:06:01.371Z,14.13
2019-06-26T19:08:33.810Z,10.00
2019-06-26T19:11:05.816Z,14.85
2019-06-26T19:13:39.188Z,11.20
2019-06-26T19:16:11.239Z,11.88
2019-06-26T19:18:43.703Z,10.08
2019-06-26T19:21:15.829Z,18.30
2019-06-26T19:23:47.685Z,14.53
2019-06-26T19:26:21.801Z,14.05
2019-06-26T19:28:54.100Z,16.55
2019-06-26T19:31:26.297Z,17.42
2019-06-26T19:33:58.698Z,11.80
2019-06-26T19:36:49.017Z,11.50
2019-06-26T19:39:07.272Z,15.13
2019-06-26T19:41:40.532Z,12.37
2019-06-26T19:44:12.856Z,17.62
2019-06-26T19:46:45.185Z,16.27
2019-06-26T19:49:17.398Z,15.45
2019-06-26T19:51:50.288Z,15.13
2019-06-26T19:54:27.108Z,11.85
2019-06-26T19:56:56.654Z,17.65
2019-06-26T19:59:29.319Z,15.23
2019-06-26T20:02:01.606Z,17.35
2019-06-26T20:04:34.301Z,17.90
2019-06-26T20:07:06.554Z,17.25
2019-06-26T20:09:38.709Z,21.68
2019-06-26T20:12:12.393Z,22.95
2019-06-26T20:14:44.558Z,28.20
2019-06-26T20:17:16.743Z,32.67
2019-06-26T20:19:48.822Z,27.07
2019-06-26T20:22:21.186Z,27.73
2019-06-26T20:24:57.192Z,28.30
2019-06-26T20:27:27.065Z,26.10
2019-06-26T20:29:59.336Z,31.40
2019-06-26T20:32:34.268Z,29.27
2019-06-26T20:35:07.200Z,25.88
2019-06-26T20:37:39.544Z,33.30
2019-06-26T20:40:11.899Z,32.70
2019-06-26T20:42:44.173Z,31.40
2019-06-26T20:45:16.442Z,36.70
2019-06-26T20:47:48.633Z,35.33
2019-06-26T20:50:20.982Z,32.88
2019-06-26T20:52:53.153Z,34.75
2019-06-26T20:55:25.422Z,34.18
2019-06-26T20:57:57.620Z,44.42
2019-06-26T21:00:30.179Z,39.75
2019-06-26T21:03:02.758Z,40.90
2019-06-26T21:05:34.808Z,41.90
2019-06-26T21:08:06.979Z,44.45
2019-06-26T21:10:39.249Z,42.88
2019-06-26T21:13:12.657Z,44.98
2019-06-26T21:15:44.824Z,55.28
2019-06-26T21:18:16.879Z,49.77
2019-06-26T21:20:49.358Z,55.10
2019-06-26T21:23:23.514Z,53.20
2019-06-26T21:25:55.124Z,54.93
2019-06-26T21:28:27.190Z,57.27
2019-06-26T21:30:59.035Z,49.45
2019-06-26T21:33:31.437Z,54.58
2019-06-26T21:36:03.713Z,59.53
2019-06-26T21:38:36.067Z,51.42
2019-06-26T21:41:08.138Z,52.65
2019-06-26T21:43:40.200Z,47.15
2019-06-26T21:46:12.267Z,51.88
2019-06-26T21:48:44.330Z,48.00
2019-06-26T21:51:16.503Z,57.23
2019-06-26T21:53:48.780Z,46.92
2019-06-26T21:56:40.087Z,50.60
2019-06-26T21:59:30.685Z,49.58
2019-06-26T22:02:21.032Z,45.00
2019-06-26T22:04:57.874Z,51.48
2019-06-26T22:07:31.458Z,51.33
2019-06-26T22:10:08.354Z,49.60
2019-06-26T22:12:41.741Z,47.48
2019-06-26T22:15:14.109Z,54.00
2019-06-26T22:17:46.582Z,57.00
2019-06-26T22:20:19.726Z,66.15
2019-06-26T22:22:52.263Z,64.35
2019-06-26T22:25:24.526Z,79.00
2019-06-26T22:27:56.587Z,79.12
2019-06-26T22:30:28.823Z,75.85
2019-06-26T22:33:01.173Z,75.30
2019-06-26T22:35:33.510Z,85.95
2019-06-26T22:38:05.467Z,79.17
2019-06-26T22:40:37.770Z,78.00
2019-06-26T22:43:09.701Z,74.75
2019-06-26T22:45:42.075Z,77.80
2019-06-26T22:48:14.039Z,79.00
2019-06-26T22:50:46.206Z,75.50
2019-06-26T22:53:18.490Z,80.30
2019-06-26T22:56:06.418Z,77.62
2019-06-26T22:58:24.448Z,73.28
2019-06-26T23:00:56.689Z,71.28
2019-06-26T23:03:29.400Z,77.47
2019-06-26T23:06:01.673Z,71.45
2019-06-26T23:08:33.728Z,72.50
2019-06-26T23:11:05.685Z,70.40
2019-06-26T23:13:38.129Z,69.27
2019-06-26T23:16:10.555Z,75.42
2019-06-26T23:18:42.515Z,77.15
2019-06-26T23:21:14.580Z,75.72
2019-06-26T23:23:47.055Z,75.62
2019-06-26T23:26:23.843Z,72.72
2019-06-26T23:28:52.925Z,80.15
2019-06-26T23:31:25.106Z,68.15
2019-06-26T23:33:57.670Z,82.50
2019-06-26T23:36:29.941Z,77.27
2019-06-26T23:39:02.218Z,85.75
2019-06-26T23:41:34.283Z,84.77
2019-06-26T23:44:06.548Z,80.92
2019-06-26T23:46:38.819Z,81.17
2019-06-26T23:49:10.986Z,83.07
2019-06-26T23:51:43.309Z,80.42
2019-06-26T23:54:15.630Z,89.10
2019-06-26T23:56:47.795Z,83.65
2019-06-26T23:59:20.069Z,84.45
